createdAt,value
2018-04-18T00:00:33.577Z,102203.13
2018-04-18T00:03:06.230Z,102197.67
2018-04-18T00:05:32.868Z,102196.72
2018-04-18T00:07:58.673Z,102194.56
2018-04-18T00:10:24.444Z,102192.88
2018-04-18T00:12:50.242Z,102190.66
2018-04-18T00:15:16.031Z,102196.08
2018-04-18T00:17:41.841Z,102200.87
2018-04-18T00:20:07.621Z,102203.94
2018-04-18T00:22:33.403Z,102203.76
2018-04-18T00:24:59.197Z,102205.11
2018-04-18T00:27:24.977Z,102209.33
2018-04-18T00:29:50.759Z,102206.89
2018-04-18T00:32:16.570Z,102213.28
2018-04-18T00:34:42.360Z,102208.69
2018-04-18T00:37:08.137Z,102213.20
2018-04-18T00:39:33.952Z,102213.05
2018-04-18T00:41:59.750Z,102213.14
2018-04-18T00:44:25.542Z,102191.09
2018-04-18T00:46:51.335Z,102218.48
2018-04-18T00:49:17.116Z,102213.59
2018-04-18T00:51:42.900Z,102217.65
2018-04-18T00:54:08.716Z,102212.56
2018-04-18T00:56:34.492Z,102214.37
2018-04-18T00:59:00.279Z,102215.67
2018-04-18T01:01:26.064Z,102213.24
2018-04-18T01:03:51.997Z,102216.88
2018-04-18T01:06:17.782Z,102211.27
2018-04-18T01:08:43.564Z,102220.02
2018-04-18T01:11:09.462Z,102212.37
2018-04-18T01:13:35.258Z,102217.59
2018-04-18T01:16:01.045Z,102217.17
2018-04-18T01:18:26.821Z,102215.78
2018-04-18T01:20:52.724Z,102215.48
2018-04-18T01:23:18.597Z,102222.57
2018-04-18T01:25:44.372Z,102223.43
2018-04-18T01:28:10.185Z,102219.45
2018-04-18T01:30:35.987Z,102223.63
2018-04-18T01:33:01.799Z,102227.97
2018-04-18T01:35:27.729Z,102227.30
2018-04-18T01:37:54.209Z,102220.83
2018-04-18T01:40:19.998Z,102232.03
2018-04-18T01:42:46.105Z,102230.56
2018-04-18T01:45:11.922Z,102224.48
2018-04-18T01:47:37.714Z,102220.91
2018-04-18T01:50:03.511Z,102224.16
2018-04-18T01:52:30.193Z,102226.92
2018-04-18T01:54:56.051Z,102231.77
2018-04-18T01:57:21.825Z,102227.11
2018-04-18T01:59:47.597Z,102234.24
2018-04-18T02:02:13.377Z,102234.91
2018-04-18T02:04:39.177Z,102238.84
2018-04-18T02:07:04.978Z,102236.50
2018-04-18T02:09:30.934Z,102240.78
2018-04-18T02:11:56.715Z,102239.90
2018-04-18T02:14:22.877Z,102235.94
2018-04-18T02:16:48.681Z,102236.23
2018-04-18T02:19:14.457Z,102243.69
2018-04-18T02:21:40.284Z,102245.05
2018-04-18T02:24:06.057Z,102243.45
2018-04-18T02:26:31.829Z,102240.34
2018-04-18T02:28:57.645Z,102244.75
2018-04-18T02:31:23.456Z,102241.70
2018-04-18T02:33:49.258Z,102241.89
2018-04-18T02:36:15.233Z,102247.52
2018-04-18T02:38:41.027Z,102244.56
2018-04-18T02:41:06.817Z,102250.77
2018-04-18T02:43:32.645Z,102256.39
2018-04-18T02:45:58.430Z,102253.23
2018-04-18T02:48:24.237Z,102250.63
2018-04-18T02:50:50.051Z,102250.72
2018-04-18T02:53:15.850Z,102257.37
2018-04-18T02:55:41.632Z,102255.63
2018-04-18T02:58:07.441Z,102254.06
2018-04-18T03:00:33.229Z,102261.00
2018-04-18T03:02:59.022Z,102264.00
2018-04-18T03:05:24.818Z,102264.78
2018-04-18T03:07:50.607Z,102258.44
2018-04-18T03:10:16.394Z,102252.38
2018-04-18T03:12:42.204Z,102265.02
2018-04-18T03:15:07.989Z,102268.36
2018-04-18T03:17:33.787Z,102265.22
2018-04-18T03:19:59.601Z,102274.81
2018-04-18T03:22:25.402Z,102268.98
2018-04-18T03:24:51.191Z,102262.24
2018-04-18T03:27:17.108Z,102275.88
2018-04-18T03:29:49.976Z,102280.18
2018-04-18T03:32:15.765Z,102279.80
2018-04-18T03:34:41.832Z,102276.98
2018-04-18T03:37:07.623Z,102277.81
2018-04-18T03:39:33.408Z,102283.63
2018-04-18T03:41:59.189Z,102292.56
2018-04-18T03:44:25.002Z,102288.48
2018-04-18T03:46:50.774Z,102289.16
2018-04-18T03:49:16.557Z,102284.54
2018-04-18T03:51:42.349Z,102292.41
2018-04-18T03:54:08.162Z,102287.12
2018-04-18T03:56:33.911Z,102289.09
2018-04-18T03:58:59.718Z,102287.23
2018-04-18T04:01:25.544Z,102287.83
2018-04-18T04:03:51.317Z,102290.77
2018-04-18T04:06:17.136Z,102304.00
2018-04-18T04:08:42.921Z,102302.63
2018-04-18T04:11:08.709Z,102303.16
2018-04-18T04:13:34.558Z,102301.19
2018-04-18T04:16:01.173Z,102305.79
2018-04-18T04:18:39.444Z,102307.73
2018-04-18T04:21:17.454Z,102315.41
2018-04-18T04:23:55.697Z,102317.16
2018-04-18T04:26:21.498Z,102321.63
2018-04-18T04:28:47.288Z,102324.14
2018-04-18T04:31:13.097Z,102323.28
2018-04-18T04:33:38.896Z,102322.80
2018-04-18T04:36:04.693Z,102319.01
2018-04-18T04:38:30.569Z,102326.02
2018-04-18T04:40:56.369Z,102316.72
2018-04-18T04:43:22.144Z,102336.09
2018-04-18T04:45:48.156Z,102332.16
2018-04-18T04:48:13.941Z,102335.41
2018-04-18T04:50:39.717Z,102327.95
2018-04-18T04:53:05.535Z,102338.19
2018-04-18T04:55:31.329Z,102333.70
2018-04-18T04:57:57.118Z,102337.98
2018-04-18T05:00:22.915Z,102339.00
2018-04-18T05:02:48.696Z,102343.20
2018-04-18T05:05:14.480Z,102345.27
2018-04-18T05:07:40.307Z,102342.04
2018-04-18T05:10:06.092Z,102352.13
2018-04-18T05:12:31.865Z,102353.83
2018-04-18T05:14:57.649Z,102354.22
2018-04-18T05:17:23.453Z,102361.67
2018-04-18T05:19:49.280Z,102360.52
2018-04-18T05:22:15.059Z,102376.14
2018-04-18T05:24:40.840Z,102378.27
2018-04-18T05:27:06.634Z,102380.12
2018-04-18T05:29:32.411Z,102384.30
2018-04-18T05:31:58.201Z,102386.71
2018-04-18T05:34:23.985Z,102388.89
2018-04-18T05:36:49.765Z,102396.41
2018-04-18T05:39:15.570Z,102396.66
2018-04-18T05:41:41.557Z,102398.48
2018-04-18T05:44:07.356Z,102398.69
2018-04-18T05:46:33.135Z,102397.30
2018-04-18T05:48:58.920Z,102401.66
2018-04-18T05:51:24.725Z,102400.83
2018-04-18T05:53:50.505Z,102403.38
2018-04-18T05:56:16.305Z,102410.34
2018-04-18T05:58:42.124Z,102412.64
2018-04-18T06:01:07.902Z,102416.17
2018-04-18T06:03:33.688Z,102420.65
2018-04-18T06:05:59.495Z,102418.69
2018-04-18T06:08:25.289Z,102420.70
2018-04-18T06:10:51.069Z,102420.50
2018-04-18T06:13:16.906Z,102422.42
2018-04-18T06:15:42.682Z,102425.55
2018-04-18T06:18:08.465Z,102426.54
2018-04-18T06:20:34.257Z,102428.55
2018-04-18T06:23:00.034Z,102428.02
2018-04-18T06:25:25.824Z,102432.39
2018-04-18T06:27:51.601Z,102435.42
2018-04-18T06:30:17.424Z,102437.22
2018-04-18T06:32:43.207Z,102439.39
2018-04-18T06:35:08.982Z,102448.47
2018-04-18T06:37:34.791Z,102452.97
2018-04-18T06:40:00.621Z,102454.22
2018-04-18T06:42:26.373Z,102451.67
2018-04-18T06:44:52.186Z,102450.63
2018-04-18T06:47:17.982Z,102456.85
2018-04-18T06:49:43.769Z,102461.67
2018-04-18T06:52:09.782Z,102458.48
2018-04-18T06:54:35.565Z,102464.81
2018-04-18T06:57:01.362Z,102470.55
2018-04-18T06:59:27.174Z,102470.72
2018-04-18T07:01:52.954Z,102470.39
2018-04-18T07:04:18.733Z,102473.00
2018-04-18T07:06:44.698Z,102480.87
2018-04-18T07:09:10.476Z,102479.08
2018-04-18T07:11:36.270Z,102484.88
2018-04-18T07:14:02.113Z,102485.28
2018-04-18T07:16:27.895Z,102490.09
2018-04-18T07:18:53.672Z,102489.39
2018-04-18T07:21:19.709Z,102497.38
2018-04-18T07:23:45.513Z,102500.20
2018-04-18T07:26:11.316Z,102496.23
2018-04-18T07:28:37.108Z,102497.19
2018-04-18T07:31:02.912Z,102500.48
2018-04-18T07:33:28.699Z,102498.47
2018-04-18T07:35:54.505Z,102498.79
2018-04-18T07:38:20.318Z,102502.47
2018-04-18T07:40:46.343Z,102498.19
2018-04-18T07:43:12.331Z,102501.74
2018-04-18T07:45:38.136Z,102504.66
2018-04-18T07:48:03.935Z,102507.42
2018-04-18T07:50:29.888Z,102514.02
2018-04-18T07:52:56.169Z,102516.56
2018-04-18T07:55:22.026Z,102513.52
2018-04-18T07:57:48.117Z,102514.97
2018-04-18T08:00:14.044Z,102522.40
2018-04-18T08:02:39.892Z,102517.47
2018-04-18T08:05:05.694Z,102513.59
2018-04-18T08:07:32.412Z,102528.39
2018-04-18T08:09:58.478Z,102528.18
2018-04-18T08:12:24.765Z,102524.91
2018-04-18T08:14:50.743Z,102537.71
2018-04-18T08:17:16.617Z,102534.96
2018-04-18T08:19:43.457Z,102535.78
2018-04-18T08:22:09.350Z,102533.94
2018-04-18T08:24:35.405Z,102533.05
2018-04-18T08:27:01.625Z,102543.40
2018-04-18T08:29:27.466Z,102548.05
2018-04-18T08:31:53.285Z,102539.55
2018-04-18T08:34:19.407Z,102537.38
2018-04-18T08:36:45.335Z,102541.27
2018-04-18T08:39:11.359Z,102542.28
2018-04-18T08:41:37.244Z,102536.75
2018-04-18T08:44:03.089Z,102543.27
2018-04-18T08:46:28.934Z,102537.14
2018-04-18T08:48:54.900Z,102541.80
2018-04-18T08:51:21.037Z,102547.00
2018-04-18T08:53:46.837Z,102549.31
2018-04-18T08:56:19.806Z,102547.70
2018-04-18T08:58:46.609Z,102545.81
2018-04-18T09:01:13.008Z,102551.95
2018-04-18T09:03:39.238Z,102549.86
2018-04-18T09:06:05.098Z,102555.63
2018-04-18T09:08:30.974Z,102555.80
2018-04-18T09:10:57.369Z,102550.87
2018-04-18T09:13:23.661Z,102548.97
2018-04-18T09:15:49.763Z,102546.06
2018-04-18T09:18:15.620Z,102547.77
2018-04-18T09:20:41.629Z,102553.04
2018-04-18T09:23:07.470Z,102551.30
2018-04-18T09:25:33.306Z,102558.44
2018-04-18T09:27:59.185Z,102556.26
2018-04-18T09:30:25.248Z,102554.27
2018-04-18T09:32:51.250Z,102556.73
2018-04-18T09:35:17.323Z,102556.63
2018-04-18T09:37:43.300Z,102556.59
2018-04-18T09:40:09.490Z,102559.41
2018-04-18T09:42:35.329Z,102558.73
2018-04-18T09:45:01.423Z,102556.52
2018-04-18T09:47:27.271Z,102560.81
2018-04-18T09:49:53.087Z,102549.55
2018-04-18T09:52:18.944Z,102568.12
2018-04-18T09:54:44.859Z,102566.31
2018-04-18T09:57:10.690Z,102561.14
2018-04-18T09:59:36.578Z,102564.52
2018-04-18T10:02:08.809Z,102562.31
2018-04-18T10:04:34.668Z,102565.69
2018-04-18T10:07:00.583Z,102562.64
2018-04-18T10:09:26.590Z,102565.00
2018-04-18T10:11:52.499Z,102570.52
2018-04-18T10:14:18.332Z,102569.25
2018-04-18T10:16:44.167Z,102557.97
2018-04-18T10:19:10.183Z,102568.23
2018-04-18T10:21:36.336Z,102563.51
2018-04-18T10:24:02.211Z,102566.19
2018-04-18T10:26:28.301Z,102567.69
2018-04-18T10:31:40.577Z,102575.56
2018-04-18T10:34:06.769Z,102572.38
2018-04-18T10:36:32.611Z,102564.73
2018-04-18T10:38:59.456Z,102575.56
2018-04-18T10:41:25.580Z,102570.46
2018-04-18T10:43:51.658Z,102564.77
2018-04-18T10:46:17.585Z,102569.30
2018-04-18T10:48:43.469Z,102572.44
2018-04-18T10:51:09.985Z,102557.70
2018-04-18T10:53:36.449Z,102562.80
2018-04-18T10:56:02.513Z,102564.16
2018-04-18T10:58:28.465Z,102572.13
2018-04-18T11:00:54.968Z,102567.16
2018-04-18T11:03:20.873Z,102556.02
2018-04-18T11:05:46.848Z,102558.33
2018-04-18T11:08:12.652Z,102559.27
2018-04-18T11:10:38.481Z,102564.80
2018-04-18T11:13:04.288Z,102559.02
2018-04-18T11:15:30.237Z,102558.95
2018-04-18T11:17:56.302Z,102567.78
2018-04-18T11:20:22.141Z,102556.52
2018-04-18T11:22:47.961Z,102556.76
2018-04-18T11:25:13.772Z,102562.78
2018-04-18T11:27:39.568Z,102565.82
2018-04-18T11:30:05.405Z,102569.80
2018-04-18T11:32:31.533Z,102569.05
2018-04-18T11:34:57.329Z,102567.58
2018-04-18T11:37:23.111Z,102570.58
2018-04-18T11:39:48.911Z,102566.64
2018-04-18T11:42:14.790Z,102571.70
2018-04-18T11:44:40.605Z,102567.70
2018-04-18T11:47:06.388Z,102565.48
2018-04-18T11:49:32.183Z,102569.11
2018-04-18T11:51:58.043Z,102569.19
2018-04-18T11:54:23.803Z,102569.28
2018-04-18T11:56:49.573Z,102566.56
2018-04-18T11:59:15.374Z,102570.80
2018-04-18T12:01:41.170Z,102560.72
2018-04-18T12:04:06.990Z,102567.11
2018-04-18T12:06:32.787Z,102570.95
2018-04-18T12:08:58.580Z,102577.54
2018-04-18T12:11:24.352Z,102572.03
2018-04-18T12:13:50.149Z,102569.72
2018-04-18T12:16:15.955Z,102574.98
2018-04-18T12:18:41.755Z,102574.31
2018-04-18T12:21:07.554Z,102579.17
2018-04-18T12:23:33.358Z,102571.44
2018-04-18T12:25:59.146Z,102574.56
2018-04-18T12:28:24.926Z,102571.34
2018-04-18T12:30:50.981Z,102570.70
2018-04-18T12:33:16.766Z,102569.82
2018-04-18T12:35:42.558Z,102566.86
2018-04-18T12:38:08.339Z,102566.72
2018-04-18T12:40:34.196Z,102575.25
2018-04-18T12:42:59.969Z,102564.12
2018-04-18T12:45:25.757Z,102576.27
2018-04-18T12:47:51.546Z,102568.56
2018-04-18T12:50:17.355Z,102568.91
2018-04-18T12:52:43.137Z,102572.09
2018-04-18T12:55:08.921Z,102564.05
2018-04-18T12:57:34.775Z,102551.81
2018-04-18T13:00:00.570Z,102553.61
2018-04-18T13:02:26.368Z,102549.91
2018-04-18T13:04:52.145Z,102554.06
2018-04-18T13:07:17.958Z,102548.82
2018-04-18T13:09:43.762Z,102549.73
2018-04-18T13:12:09.547Z,102549.02
2018-04-18T13:14:35.350Z,102543.13
2018-04-18T13:17:01.158Z,102549.48
2018-04-18T13:19:26.934Z,102548.53
2018-04-18T13:21:52.721Z,102553.48
2018-04-18T13:24:18.641Z,102547.53
2018-04-18T13:26:44.457Z,102547.46
2018-04-18T13:29:10.227Z,102545.73
2018-04-18T13:31:36.304Z,102538.05
2018-04-18T13:34:02.130Z,102537.95
2018-04-18T13:36:27.914Z,102543.34
2018-04-18T13:38:53.715Z,102542.27
2018-04-18T13:41:19.493Z,102549.14
2018-04-18T13:43:45.266Z,102546.08
2018-04-18T13:46:11.072Z,102540.22
2018-04-18T13:48:36.853Z,102541.22
2018-04-18T13:51:02.642Z,102543.65
2018-04-18T13:53:28.418Z,102539.67
2018-04-18T13:55:54.203Z,102535.56
2018-04-18T13:58:20.011Z,102543.36
2018-04-18T14:00:45.786Z,102539.79
2018-04-18T14:03:11.570Z,102540.09
2018-04-18T14:05:37.383Z,102541.52
2018-04-18T14:08:03.180Z,102537.67
2018-04-18T14:10:28.959Z,102536.59
2018-04-18T14:12:54.765Z,102538.48
2018-04-18T14:15:20.591Z,102538.97
2018-04-18T14:17:46.346Z,102540.77
2018-04-18T14:20:12.143Z,102531.58
2018-04-18T14:22:37.917Z,102530.00
2018-04-18T14:25:03.739Z,102534.83
2018-04-18T14:27:29.538Z,102529.08
2018-04-18T14:29:55.344Z,102533.10
2018-04-18T14:32:21.149Z,102531.13
2018-04-18T14:34:46.938Z,102532.79
2018-04-18T14:37:12.730Z,102531.99
2018-04-18T14:39:38.710Z,102535.86
2018-04-18T14:42:04.498Z,102531.58
2018-04-18T14:44:30.278Z,102530.77
2018-04-18T14:46:56.084Z,102523.55
2018-04-18T14:49:21.888Z,102529.28
2018-04-18T14:51:47.703Z,102524.17
2018-04-18T14:54:13.821Z,102526.37
2018-04-18T14:56:39.611Z,102521.81
2018-04-18T14:59:05.398Z,102515.70
2018-04-18T15:01:31.453Z,102510.86
2018-04-18T15:03:57.281Z,102512.30
2018-04-18T15:06:23.060Z,102507.11
2018-04-18T15:08:48.857Z,102516.30
2018-04-18T15:11:14.641Z,102511.33
2018-04-18T15:13:40.421Z,102512.36
2018-04-18T15:16:06.233Z,102513.20
2018-04-18T15:18:32.077Z,102514.36
2018-04-18T15:20:57.858Z,102515.03
2018-04-18T15:23:23.658Z,102515.23
2018-04-18T15:25:49.433Z,102512.51
2018-04-18T15:28:15.252Z,102509.34
2018-04-18T15:30:41.405Z,102514.23
2018-04-18T15:33:07.196Z,102515.00
2018-04-18T15:35:33.038Z,102514.61
2018-04-18T15:37:58.826Z,102508.13
2018-04-18T15:40:24.606Z,102508.08
2018-04-18T15:42:50.409Z,102509.25
2018-04-18T15:45:16.192Z,102504.43
2018-04-18T15:47:41.989Z,102506.11
2018-04-18T15:50:07.782Z,102501.48
2018-04-18T15:52:33.564Z,102505.14
2018-04-18T15:54:59.695Z,102500.91
2018-04-18T15:57:25.490Z,102504.72
2018-04-18T15:59:51.270Z,102505.13
2018-04-18T16:02:17.074Z,102500.92
2018-04-18T16:04:42.853Z,102504.91
2018-04-18T16:07:08.883Z,102500.69
2018-04-18T16:09:34.830Z,102502.66
2018-04-18T16:12:00.773Z,102504.84
2018-04-18T16:14:26.705Z,102507.78
2018-04-18T16:16:52.567Z,102503.78
2018-04-18T16:19:18.418Z,102508.55
2018-04-18T16:21:45.081Z,102502.52
2018-04-18T16:24:11.804Z,102501.38
2018-04-18T16:26:38.420Z,102500.83
2018-04-18T16:29:18.210Z,102502.67
2018-04-18T16:31:45.007Z,102500.04
2018-04-18T16:34:11.635Z,102505.79
2018-04-18T16:36:38.337Z,102505.77
2018-04-18T16:39:05.163Z,102502.65
2018-04-18T16:41:32.507Z,102506.53
2018-04-18T16:43:59.122Z,102506.19
2018-04-18T16:46:25.591Z,102505.48
2018-04-18T16:48:52.127Z,102509.70
2018-04-18T16:51:18.789Z,102504.92
2018-04-18T16:53:45.461Z,102500.67
2018-04-18T16:56:11.785Z,102506.09
2018-04-18T16:58:38.578Z,102505.95
2018-04-18T17:01:05.349Z,102500.56
2018-04-18T17:03:31.877Z,102501.99
2018-04-18T17:05:59.387Z,102495.02
2018-04-18T17:08:25.984Z,102489.42
2018-04-18T17:10:52.622Z,102492.80
2018-04-18T17:13:19.625Z,102496.22
2018-04-18T17:15:46.500Z,102494.36
2018-04-18T17:18:14.049Z,102492.70
2018-04-18T17:20:41.428Z,102482.55
2018-04-18T17:23:07.921Z,102482.55
2018-04-18T17:25:34.362Z,102485.80
2018-04-18T17:28:01.116Z,102491.34
2018-04-18T17:30:28.127Z,102491.99
2018-04-18T17:32:54.733Z,102493.58
2018-04-18T17:35:21.568Z,102495.92
2018-04-18T17:37:48.136Z,102497.30
2018-04-18T17:40:14.827Z,102501.27
2018-04-18T17:42:41.452Z,102498.20
2018-04-18T17:45:07.997Z,102496.67
2018-04-18T17:47:35.675Z,102496.33
2018-04-18T17:50:02.243Z,102494.18
2018-04-18T17:52:35.819Z,102496.30
2018-04-18T17:55:02.398Z,102494.50
2018-04-18T17:57:28.903Z,102498.27
2018-04-18T17:59:55.537Z,102495.02
2018-04-18T18:02:22.052Z,102494.09
2018-04-18T18:04:48.755Z,102496.64
2018-04-18T18:07:15.084Z,102500.80
2018-04-18T18:09:41.829Z,102496.23
2018-04-18T18:12:08.828Z,102504.95
2018-04-18T18:14:35.498Z,102499.81
2018-04-18T18:17:02.263Z,102499.58
2018-04-18T18:19:29.025Z,102496.13
2018-04-18T18:21:55.658Z,102501.09
2018-04-18T18:24:22.417Z,102507.44
2018-04-18T18:26:49.284Z,102508.47
2018-04-18T18:29:16.164Z,102511.25
2018-04-18T18:31:42.968Z,102508.78
2018-04-18T18:34:10.383Z,102514.45
2018-04-18T18:36:37.146Z,102517.42
2018-04-18T18:39:04.768Z,102515.84
2018-04-18T18:41:31.585Z,102520.92
2018-04-18T18:43:59.267Z,102519.62
2018-04-18T18:46:26.105Z,102525.60
2018-04-18T18:48:52.827Z,102524.91
2018-04-18T18:51:19.687Z,102526.02
2018-04-18T18:53:46.339Z,102533.14
2018-04-18T18:56:12.932Z,102529.19
2018-04-18T18:58:39.894Z,102533.25
2018-04-18T19:01:06.865Z,102537.91
2018-04-18T19:03:34.375Z,102537.04
2018-04-18T19:06:01.183Z,102538.44
2018-04-18T19:08:27.795Z,102537.30
2018-04-18T19:10:54.535Z,102545.30
2018-04-18T19:13:21.271Z,102541.77
2018-04-18T19:15:47.622Z,102541.70
2018-04-18T19:18:15.167Z,102548.17
2018-04-18T19:20:41.900Z,102551.05
2018-04-18T19:23:08.402Z,102556.48
2018-04-18T19:25:35.443Z,102556.52
2018-04-18T19:28:01.983Z,102557.81
2018-04-18T19:30:28.594Z,102561.60
2018-04-18T19:32:55.020Z,102569.14
2018-04-18T19:35:22.344Z,102565.72
2018-04-18T19:37:49.066Z,102558.34
2018-04-18T19:40:15.679Z,102559.58
2018-04-18T19:42:42.555Z,102554.79
2018-04-18T19:45:09.574Z,102563.37
2018-04-18T19:47:36.088Z,102561.11
2018-04-18T19:50:02.721Z,102564.39
2018-04-18T19:52:29.223Z,102564.52
2018-04-18T19:54:55.793Z,102561.98
2018-04-18T19:57:23.555Z,102563.65
2018-04-18T19:59:50.117Z,102560.02
2018-04-18T20:02:16.679Z,102563.17
2018-04-18T20:04:43.407Z,102557.12
2018-04-18T20:07:11.082Z,102562.17
2018-04-18T20:09:37.722Z,102557.65
2018-04-18T20:12:04.466Z,102558.67
2018-04-18T20:14:33.281Z,102560.61
2018-04-18T20:16:59.787Z,102557.03
2018-04-18T20:19:26.490Z,102561.80
2018-04-18T20:21:53.269Z,102559.15
2018-04-18T20:24:19.765Z,102560.31
2018-04-18T20:26:46.586Z,102558.87
2018-04-18T20:29:13.243Z,102559.03
2018-04-18T20:31:40.010Z,102559.66
2018-04-18T20:34:06.728Z,102564.48
2018-04-18T20:36:37.520Z,102561.00
2018-04-18T20:39:04.863Z,102556.91
2018-04-18T20:41:32.055Z,102543.13
2018-04-18T20:43:58.801Z,102559.22
2018-04-18T20:46:25.901Z,102558.29
2018-04-18T20:48:52.457Z,102565.80
2018-04-18T20:51:19.137Z,102561.11
2018-04-18T20:53:46.001Z,102553.59
2018-04-18T20:56:12.596Z,102560.42
2018-04-18T20:58:39.233Z,102564.17
2018-04-18T21:01:05.995Z,102558.68
2018-04-18T21:03:32.685Z,102562.92
2018-04-18T21:05:59.331Z,102563.72
2018-04-18T21:08:26.911Z,102567.86
2018-04-18T21:10:53.423Z,102571.67
2018-04-18T21:13:20.156Z,102565.88
2018-04-18T21:15:47.817Z,102572.94
2018-04-18T21:18:14.798Z,102573.81
2018-04-18T21:20:41.445Z,102585.23
2018-04-18T21:23:09.196Z,102583.58
2018-04-18T21:25:35.898Z,102578.89
2018-04-18T21:28:02.894Z,102578.06
2018-04-18T21:30:29.528Z,102594.46
2018-04-18T21:32:56.363Z,102598.23
2018-04-18T21:35:24.714Z,102588.41
2018-04-18T21:37:52.041Z,102591.45
2018-04-18T21:40:19.022Z,102586.88
2018-04-18T21:42:46.082Z,102591.77
2018-04-18T21:45:12.700Z,102591.47
2018-04-18T21:47:39.308Z,102588.39
2018-04-18T21:50:05.919Z,102588.34
2018-04-18T21:52:32.563Z,102589.43
2018-04-18T21:54:59.411Z,102593.33
2018-04-18T21:57:26.041Z,102583.80
2018-04-18T21:59:52.612Z,102580.31
2018-04-18T22:02:19.268Z,102583.41
2018-04-18T22:04:45.971Z,102576.84
2018-04-18T22:07:12.571Z,102581.48
2018-04-18T22:09:40.350Z,102579.59
2018-04-18T22:12:06.819Z,102583.75
2018-04-18T22:14:33.349Z,102583.16
2018-04-18T22:17:00.156Z,102576.83
2018-04-18T22:19:26.680Z,102569.11
2018-04-18T22:21:54.113Z,102574.91
2018-04-18T22:24:20.787Z,102575.37
2018-04-18T22:26:49.130Z,102583.31
2018-04-18T22:29:15.568Z,102588.16
2018-04-18T22:31:42.241Z,102583.57
2018-04-18T22:34:09.764Z,102583.25
2018-04-18T22:36:36.362Z,102575.99
2018-04-18T22:39:02.970Z,102580.55
2018-04-18T22:41:29.741Z,102578.56
2018-04-18T22:43:56.369Z,102586.80
2018-04-18T22:46:23.296Z,102578.13
2018-04-18T22:48:49.910Z,102575.37
2018-04-18T22:51:16.611Z,102578.24
2018-04-18T22:53:46.210Z,102581.45
2018-04-18T22:56:12.845Z,102579.84
2018-04-18T22:58:38.686Z,102577.66
2018-04-18T23:01:04.500Z,102576.61
2018-04-18T23:03:30.287Z,102574.59
2018-04-18T23:05:56.084Z,102574.91
2018-04-18T23:08:21.871Z,102575.09
2018-04-18T23:10:47.667Z,102564.86
2018-04-18T23:13:13.449Z,102563.90
2018-04-18T23:15:39.273Z,102566.05
2018-04-18T23:18:05.081Z,102571.33
2018-04-18T23:20:30.857Z,102569.36
2018-04-18T23:22:56.671Z,102566.69
2018-04-18T23:25:22.486Z,102563.50
2018-04-18T23:27:48.260Z,102565.69
2018-04-18T23:30:14.057Z,102562.20
2018-04-18T23:32:39.857Z,102559.45
2018-04-18T23:35:05.674Z,102558.61
2018-04-18T23:37:31.482Z,102558.04
2018-04-18T23:39:57.279Z,102558.74
2018-04-18T23:42:23.076Z,102555.08
2018-04-18T23:44:48.891Z,102550.01
2018-04-18T23:47:14.696Z,102548.88
2018-04-18T23:49:40.505Z,102550.94
2018-04-18T23:52:06.281Z,102546.14
2018-04-18T23:54:32.059Z,102542.27
2018-04-18T23:56:57.845Z,102548.09
2018-04-18T23:59:23.618Z,102549.67
